createdAt,value
2019-05-05T00:00:48.151Z,92.50
2019-05-05T00:03:21.005Z,92.80
2019-05-05T00:05:50.723Z,93.50
2019-05-05T00:08:19.149Z,93.70
2019-05-05T00:11:08.235Z,93.70
2019-05-05T00:13:57.378Z,94.20
2019-05-05T00:16:35.979Z,94.20
2019-05-05T00:19:04.881Z,94.40
2019-05-05T00:21:40.951Z,94.60
2019-05-05T00:24:09.197Z,94.80
2019-05-05T00:26:37.443Z,95.40
2019-05-05T00:29:14.966Z,95.60
2019-05-05T00:31:45.275Z,95.70
2019-05-05T00:34:14.887Z,94.90
2019-05-05T00:36:44.588Z,95.00
2019-05-05T00:39:14.868Z,95.20
2019-05-05T00:41:44.828Z,95.70
2019-05-05T00:44:15.177Z,95.80
2019-05-05T00:46:44.728Z,96.20
2019-05-05T00:49:45.632Z,95.60
2019-05-05T00:52:14.519Z,95.00
2019-05-05T00:54:44.922Z,95.00
2019-05-05T00:57:14.867Z,95.30
2019-05-05T00:59:42.731Z,95.70
2019-05-05T01:02:27.515Z,95.10
2019-05-05T01:05:14.871Z,95.70
2019-05-05T01:07:44.407Z,95.50
2019-05-05T01:10:14.274Z,95.50
2019-05-05T01:12:48.602Z,94.50
2019-05-05T01:15:16.842Z,94.30
2019-05-05T01:18:02.219Z,94.40
2019-05-05T01:20:41.603Z,94.40
2019-05-05T01:23:10.028Z,95.00
2019-05-05T01:25:38.272Z,94.70
2019-05-05T01:28:09.534Z,94.90
2019-05-05T01:30:39.432Z,95.50
2019-05-05T01:33:18.127Z,94.70
2019-05-05T01:35:46.383Z,94.70
2019-05-05T01:38:16.262Z,94.40
2019-05-05T01:40:55.213Z,94.60
2019-05-05T01:43:26.409Z,94.70
2019-05-05T01:45:54.740Z,95.00
2019-05-05T01:48:31.732Z,94.70
2019-05-05T01:51:00.008Z,95.20
2019-05-05T01:53:28.260Z,94.60
2019-05-05T01:55:56.507Z,94.70
2019-05-05T01:58:30.912Z,94.90
2019-05-05T02:00:59.154Z,94.70
2019-05-05T02:03:35.041Z,96.00
2019-05-05T02:06:05.287Z,95.50
2019-05-05T02:08:48.779Z,94.90
2019-05-05T02:11:17.115Z,93.10
2019-05-05T02:13:45.362Z,92.40
2019-05-05T02:16:15.062Z,91.00
2019-05-05T02:18:45.077Z,90.80
2019-05-05T02:21:14.250Z,91.90
2019-05-05T02:23:42.717Z,91.90
2019-05-05T02:26:15.299Z,88.90
2019-05-05T02:28:51.370Z,90.20
2019-05-05T02:31:25.550Z,89.50
2019-05-05T02:33:56.596Z,91.10
2019-05-05T02:36:25.750Z,86.70
2019-05-05T02:38:56.466Z,89.10
2019-05-05T02:41:25.466Z,88.80
2019-05-05T02:43:59.861Z,87.90
2019-05-05T02:46:47.890Z,92.40
2019-05-05T02:49:21.874Z,92.30
2019-05-05T02:51:50.120Z,92.80
2019-05-05T02:54:19.287Z,93.50
2019-05-05T02:56:49.192Z,93.40
2019-05-05T02:59:19.921Z,93.20
2019-05-05T03:02:04.147Z,93.30
2019-05-05T03:05:08.819Z,92.60
2019-05-05T03:07:43.759Z,90.00
2019-05-05T03:10:13.980Z,90.90
2019-05-05T03:12:54.446Z,91.30
2019-05-05T03:15:34.962Z,92.10
2019-05-05T03:18:13.453Z,92.60
2019-05-05T03:20:43.574Z,93.00
2019-05-05T03:23:27.824Z,93.30
2019-05-05T03:26:05.068Z,93.30
2019-05-05T03:28:52.047Z,92.80
2019-05-05T03:31:26.167Z,93.20
2019-05-05T03:33:54.908Z,93.60
2019-05-05T03:36:24.484Z,93.30
2019-05-05T03:38:54.495Z,93.30
2019-05-05T03:41:45.501Z,93.10
2019-05-05T03:44:27.103Z,92.90
2019-05-05T03:47:23.957Z,92.00
2019-05-05T03:49:53.601Z,85.70
2019-05-05T03:52:44.367Z,89.10
2019-05-05T03:55:13.807Z,85.40
2019-05-05T03:57:55.638Z,89.10
2019-05-05T04:00:44.894Z,85.80
2019-05-05T04:03:18.978Z,79.80
2019-05-05T04:05:48.862Z,90.10
2019-05-05T04:08:17.846Z,87.70
2019-05-05T04:10:46.124Z,87.00
2019-05-05T04:13:14.370Z,80.50
2019-05-05T04:15:56.259Z,81.00
2019-05-05T04:18:43.668Z,81.50
2019-05-05T04:21:50.730Z,82.50
2019-05-05T04:24:59.331Z,84.20
2019-05-05T04:27:48.671Z,82.60
2019-05-05T04:30:44.507Z,79.90
2019-05-05T04:33:40.107Z,81.10
2019-05-05T04:38:36.384Z,84.60
2019-05-05T04:41:10.484Z,82.40
2019-05-05T04:43:41.696Z,90.20
2019-05-05T04:46:09.962Z,90.60
2019-05-05T04:48:43.915Z,83.00
2019-05-05T04:51:46.203Z,90.90
2019-05-05T04:54:18.786Z,79.10
2019-05-05T04:56:47.036Z,80.30
2019-05-05T04:59:29.018Z,86.40
2019-05-05T05:01:58.902Z,83.80
2019-05-05T05:04:46.519Z,88.40
2019-05-05T05:07:15.639Z,86.40
2019-05-05T05:09:43.891Z,85.30
2019-05-05T05:12:14.507Z,81.30
2019-05-05T05:14:44.037Z,91.20
2019-05-05T05:17:14.169Z,91.90
2019-05-05T05:19:57.399Z,91.50
2019-05-05T05:22:34.327Z,91.20
2019-05-05T05:25:14.033Z,91.90
2019-05-05T05:28:09.187Z,90.60
2019-05-05T05:30:46.211Z,85.40
2019-05-05T05:33:20.019Z,89.70
2019-05-05T05:36:15.343Z,87.40
2019-05-05T05:38:54.182Z,88.80
2019-05-05T05:41:46.530Z,84.50
2019-05-05T05:47:36.823Z,81.80
2019-05-05T05:50:27.256Z,84.50
2019-05-05T05:53:14.123Z,82.20
2019-05-05T05:59:04.804Z,90.00
2019-05-05T06:01:34.537Z,90.60
2019-05-05T06:04:34.025Z,90.70
2019-05-05T06:07:04.026Z,91.90
2019-05-05T06:09:47.672Z,89.20
2019-05-05T06:12:15.934Z,90.30
2019-05-05T06:15:04.802Z,90.40
2019-05-05T06:17:45.117Z,91.30
2019-05-05T06:20:23.921Z,90.30
2019-05-05T06:23:23.963Z,90.60
2019-05-05T06:29:47.623Z,90.70
2019-05-05T06:32:24.736Z,91.60
2019-05-05T06:35:07.760Z,91.50
2019-05-05T06:38:04.653Z,86.80
2019-05-05T06:40:40.410Z,89.70
2019-05-05T06:46:40.991Z,91.40
2019-05-05T06:49:09.306Z,92.10
2019-05-05T06:51:55.560Z,81.30
2019-05-05T06:54:35.847Z,88.10
2019-05-05T06:57:28.027Z,90.00
2019-05-05T07:00:35.196Z,90.80
2019-05-05T07:06:31.455Z,78.00
2019-05-05T07:09:08.177Z,78.80
2019-05-05T07:11:36.557Z,76.80
2019-05-05T07:14:08.603Z,78.20
2019-05-05T07:16:57.248Z,83.00
2019-05-05T07:19:31.123Z,82.90
2019-05-05T07:21:59.435Z,83.60
2019-05-05T07:24:43.650Z,76.20
2019-05-05T07:27:38.945Z,71.60
2019-05-05T07:30:24.437Z,74.90
2019-05-05T07:33:04.550Z,75.60
2019-05-05T07:39:21.026Z,77.50
2019-05-05T07:42:13.720Z,71.70
2019-05-05T07:44:59.939Z,69.20
2019-05-05T07:47:53.830Z,71.60
2019-05-05T07:56:34.406Z,84.50
2019-05-05T07:59:03.819Z,71.50
2019-05-05T08:01:49.485Z,76.80
2019-05-05T08:04:26.440Z,83.50
2019-05-05T08:07:07.027Z,79.70
2019-05-05T08:09:38.127Z,76.70
2019-05-05T08:15:53.264Z,69.40
2019-05-05T08:22:03.810Z,68.40
2019-05-05T08:24:49.637Z,73.70
2019-05-05T08:27:21.077Z,71.90
2019-05-05T08:29:51.094Z,71.50
2019-05-05T08:32:35.600Z,70.50
2019-05-05T08:36:05.399Z,70.10
2019-05-05T08:38:34.793Z,70.50
2019-05-05T08:41:24.412Z,68.70
2019-05-05T08:43:59.137Z,69.80
2019-05-05T08:47:06.935Z,72.20
2019-05-05T08:49:35.228Z,71.00
2019-05-05T08:56:17.942Z,71.80
2019-05-05T08:58:49.920Z,73.90
2019-05-05T09:01:30.086Z,70.70
2019-05-05T09:03:58.534Z,71.30
2019-05-05T09:06:26.175Z,71.50
2019-05-05T09:08:54.875Z,71.20
2019-05-05T09:11:47.356Z,70.30
2019-05-05T09:14:39.205Z,74.70
2019-05-05T09:17:21.006Z,74.20
2019-05-05T09:19:49.482Z,72.20
2019-05-05T09:22:44.727Z,75.20
2019-05-05T09:25:17.334Z,72.10
2019-05-05T09:27:49.776Z,75.60
2019-05-05T09:30:45.403Z,71.70
2019-05-05T09:33:24.614Z,71.10
2019-05-05T09:45:57.297Z,75.40
2019-05-05T09:48:34.664Z,73.60
2019-05-05T09:51:24.119Z,70.50
2019-05-05T09:53:50.591Z,69.30
2019-05-05T09:59:54.748Z,68.60
2019-05-05T10:02:46.655Z,68.40
2019-05-05T10:05:14.949Z,67.50
2019-05-05T10:11:38.347Z,66.10
2019-05-05T10:14:54.420Z,70.10
2019-05-05T10:20:57.904Z,67.20
2019-05-05T10:24:28.595Z,68.20
2019-05-05T10:30:50.290Z,66.80
2019-05-05T10:33:55.380Z,69.40
2019-05-05T10:44:40.796Z,66.50
2019-05-05T10:54:40.150Z,63.90
2019-05-05T11:34:45.266Z,73.40
2019-05-05T11:41:06.673Z,71.30
2019-05-05T11:44:27.361Z,74.90
2019-05-05T11:47:11.432Z,69.60
2019-05-05T11:50:06.490Z,72.30
2019-05-05T11:52:46.361Z,70.40
2019-05-05T11:55:24.902Z,67.30
2019-05-05T12:01:13.714Z,66.30
2019-05-05T12:04:04.079Z,69.30
2019-05-05T12:06:44.649Z,68.70
2019-05-05T12:09:44.875Z,70.90
2019-05-05T12:12:37.009Z,69.40
2019-05-05T12:16:13.673Z,64.00
2019-05-05T12:19:30.428Z,68.50
2019-05-05T12:22:46.999Z,66.90
2019-05-05T12:32:28.654Z,65.50
2019-05-05T12:35:21.020Z,60.50
2019-05-05T12:38:35.013Z,63.60
2019-05-05T12:41:44.830Z,61.50
2019-05-05T13:12:23.961Z,66.30
2019-05-05T13:22:33.951Z,67.50
2019-05-05T13:43:04.236Z,64.30
2019-05-05T13:49:25.361Z,65.10
2019-05-05T13:58:58.808Z,64.80
2019-05-05T14:02:13.771Z,65.10
2019-05-05T14:05:30.916Z,63.80
2019-05-05T14:08:40.865Z,67.70
2019-05-05T14:18:19.337Z,65.60
2019-05-05T14:25:06.376Z,63.20
2019-05-05T15:37:57.416Z,63.50
2019-05-05T15:40:48.091Z,61.30
2019-05-05T15:43:28.119Z,62.90
2019-05-05T15:45:56.387Z,63.20
2019-05-05T15:48:27.630Z,64.50
2019-05-05T15:50:58.724Z,62.30
2019-05-05T15:53:33.115Z,64.60
2019-05-05T15:56:04.604Z,65.50
2019-05-05T15:58:39.112Z,62.60
2019-05-05T16:01:23.719Z,63.50
2019-05-05T16:03:54.195Z,63.20
2019-05-05T16:06:23.714Z,65.20
2019-05-05T16:09:23.212Z,60.50
2019-05-05T16:13:04.538Z,62.20
2019-05-05T16:16:14.664Z,62.50
2019-05-05T16:19:21.164Z,63.00
2019-05-05T16:25:54.212Z,61.80
2019-05-05T16:28:34.474Z,62.70
2019-05-05T16:31:18.959Z,60.70
2019-05-05T16:33:56.299Z,61.20
2019-05-05T16:36:24.620Z,61.10
2019-05-05T16:38:58.347Z,63.60
2019-05-05T16:41:34.069Z,63.00
2019-05-05T16:44:02.536Z,63.10
2019-05-05T16:46:30.795Z,64.30
2019-05-05T16:48:59.071Z,64.10
2019-05-05T16:51:28.980Z,63.10
2019-05-05T16:54:04.714Z,63.40
2019-05-05T16:56:33.645Z,64.40
2019-05-05T16:59:02.023Z,62.70
2019-05-05T17:02:04.789Z,63.80
2019-05-05T17:04:47.840Z,65.30
2019-05-05T17:07:16.107Z,66.10
2019-05-05T17:09:53.026Z,63.70
2019-05-05T17:12:44.490Z,66.00
2019-05-05T17:15:27.812Z,65.90
2019-05-05T17:18:06.634Z,64.90
2019-05-05T17:20:48.564Z,64.80
2019-05-05T17:23:17.076Z,63.30
2019-05-05T17:25:53.837Z,65.40
2019-05-05T17:28:35.106Z,63.50
2019-05-05T17:31:09.215Z,63.90
2019-05-05T17:33:38.584Z,65.10
2019-05-05T17:36:06.931Z,64.20
2019-05-05T17:38:35.256Z,65.40
2019-05-05T17:41:23.599Z,64.60
2019-05-05T17:43:54.166Z,66.20
2019-05-05T17:46:30.052Z,64.50
2019-05-05T17:49:16.079Z,64.90
2019-05-05T17:51:46.007Z,65.20
2019-05-05T17:54:21.531Z,63.90
2019-05-05T17:56:52.328Z,65.90
2019-05-05T17:59:19.786Z,65.70
2019-05-05T18:02:18.009Z,64.30
2019-05-05T18:04:47.587Z,64.60
2019-05-05T18:07:21.268Z,62.70
2019-05-05T18:10:06.231Z,65.30
2019-05-05T18:12:38.885Z,65.70
2019-05-05T18:15:14.512Z,65.30
2019-05-05T18:17:43.361Z,65.90
2019-05-05T18:20:11.794Z,64.80
2019-05-05T18:22:40.114Z,64.70
2019-05-05T18:25:08.359Z,63.60
2019-05-05T18:27:36.672Z,64.10
2019-05-05T18:30:10.213Z,66.90
2019-05-05T18:32:38.519Z,63.90
2019-05-05T18:35:06.937Z,63.60
2019-05-05T18:37:35.239Z,63.60
2019-05-05T18:40:05.201Z,62.60
2019-05-05T18:42:34.056Z,62.60
2019-05-05T18:45:04.956Z,63.40
2019-05-05T18:47:34.103Z,62.00
2019-05-05T18:50:04.133Z,63.60
2019-05-05T18:52:34.508Z,62.40
2019-05-05T18:55:04.260Z,65.20
2019-05-05T18:57:34.115Z,66.60
2019-05-05T19:00:04.402Z,60.50
2019-05-05T19:02:35.045Z,63.00
2019-05-05T19:05:21.113Z,62.80
2019-05-05T19:08:08.929Z,66.30
2019-05-05T19:10:37.278Z,62.40
2019-05-05T19:13:05.523Z,62.40
2019-05-05T19:15:34.945Z,62.50
2019-05-05T19:18:04.062Z,60.00
2019-05-05T19:20:50.188Z,59.20
2019-05-05T19:23:19.239Z,60.20
2019-05-05T19:25:47.525Z,62.00
2019-05-05T19:28:18.908Z,60.50
2019-05-05T19:30:47.184Z,62.50
2019-05-05T19:33:15.592Z,59.80
2019-05-05T19:35:46.902Z,59.40
2019-05-05T19:38:15.732Z,60.90
2019-05-05T19:40:44.662Z,61.10
2019-05-05T19:43:13.979Z,58.40
2019-05-05T19:45:44.639Z,60.40
2019-05-05T19:48:12.762Z,61.40
2019-05-05T19:50:44.531Z,60.00
2019-05-05T19:53:24.590Z,60.70
2019-05-05T19:55:54.582Z,59.70
2019-05-05T19:58:23.075Z,62.80
2019-05-05T20:00:51.339Z,59.80
2019-05-05T20:03:19.742Z,58.00
2019-05-05T20:05:47.423Z,58.70
2019-05-05T20:08:15.711Z,61.10
2019-05-05T20:10:44.290Z,59.10
2019-05-05T20:13:14.284Z,58.70
2019-05-05T20:15:44.380Z,58.80
2019-05-05T20:18:14.200Z,59.90
2019-05-05T20:20:44.385Z,60.50
2019-05-05T20:23:13.693Z,65.00
2019-05-05T20:25:42.075Z,70.60
2019-05-05T20:28:10.323Z,63.20
2019-05-05T20:30:38.582Z,67.20
2019-05-05T20:33:13.635Z,70.10
2019-05-05T20:35:42.785Z,66.20
2019-05-05T20:38:15.647Z,62.30
2019-05-05T20:40:45.531Z,72.00
2019-05-05T20:43:14.344Z,63.00
2019-05-05T20:45:44.224Z,62.50
2019-05-05T20:48:13.379Z,63.00
2019-05-05T20:50:43.757Z,68.00
2019-05-05T20:53:13.530Z,63.10
2019-05-05T20:55:41.563Z,61.60
2019-05-05T20:58:09.826Z,67.70
2019-05-05T21:00:38.076Z,62.00
2019-05-05T21:03:06.327Z,62.00
2019-05-05T21:05:34.600Z,61.10
2019-05-05T21:08:04.875Z,71.10
2019-05-05T21:10:34.735Z,72.30
2019-05-05T21:13:03.734Z,77.60
2019-05-05T21:15:34.015Z,78.30
2019-05-05T21:18:04.658Z,71.20
2019-05-05T21:20:34.497Z,79.90
2019-05-05T21:23:03.937Z,75.80
2019-05-05T21:25:33.985Z,78.90
2019-05-05T21:28:03.717Z,76.60
2019-05-05T21:30:33.742Z,72.10
2019-05-05T21:33:04.201Z,75.90
2019-05-05T21:35:32.159Z,72.30
2019-05-05T21:38:00.395Z,79.70
2019-05-05T21:40:28.639Z,80.60
2019-05-05T21:42:56.899Z,79.10
2019-05-05T21:45:25.215Z,81.50
2019-05-05T21:47:54.990Z,81.70
2019-05-05T21:50:25.778Z,70.80
2019-05-05T21:53:01.628Z,70.20
2019-05-05T21:55:31.526Z,64.70
2019-05-05T21:58:07.430Z,63.50
2019-05-05T22:00:40.214Z,68.50
2019-05-05T22:03:08.928Z,65.50
2019-05-05T22:05:37.200Z,65.20
2019-05-05T22:08:05.463Z,73.70
2019-05-05T22:10:34.347Z,74.10
2019-05-05T22:13:04.692Z,73.20
2019-05-05T22:15:33.650Z,67.00
2019-05-05T22:18:03.694Z,75.80
2019-05-05T22:20:33.993Z,75.20
2019-05-05T22:23:03.836Z,70.00
2019-05-05T22:25:31.465Z,74.20
2019-05-05T22:27:59.710Z,72.60
2019-05-05T22:30:27.974Z,73.10
2019-05-05T22:32:56.219Z,73.70
2019-05-05T22:35:24.469Z,74.00
2019-05-05T22:37:52.747Z,74.30
2019-05-05T22:40:24.162Z,78.80
2019-05-05T22:42:51.812Z,79.50
2019-05-05T22:45:20.083Z,79.90
2019-05-05T22:47:48.341Z,80.00
2019-05-05T22:50:16.587Z,79.70
2019-05-05T22:52:44.869Z,71.10
2019-05-05T22:55:13.935Z,68.50
2019-05-05T22:57:42.271Z,69.50
2019-05-05T23:00:25.640Z,71.80
2019-05-05T23:02:49.091Z,72.70
2019-05-05T23:05:18.991Z,73.00
2019-05-05T23:07:47.315Z,75.90
2019-05-05T23:10:15.566Z,76.10
2019-05-05T23:12:44.040Z,74.00
2019-05-05T23:15:11.664Z,75.10
2019-05-05T23:17:43.668Z,75.90
2019-05-05T23:20:19.307Z,76.30
2019-05-05T23:22:49.192Z,78.50
2019-05-05T23:25:27.795Z,78.20
2019-05-05T23:27:56.121Z,84.90
2019-05-05T23:30:37.826Z,87.20
2019-05-05T23:32:54.989Z,86.60
2019-05-05T23:35:23.897Z,89.20
2019-05-05T23:37:52.402Z,87.70
2019-05-05T23:40:24.591Z,87.00
2019-05-05T23:42:54.003Z,82.80
2019-05-05T23:45:24.463Z,88.00
2019-05-05T23:47:54.405Z,87.60
2019-05-05T23:50:22.757Z,90.00
2019-05-05T23:52:50.338Z,90.20
2019-05-05T23:55:19.402Z,84.20
2019-05-05T23:57:47.646Z,81.90
